createdAt,value
2019-04-30T00:00:02.826Z,10.5
2019-04-30T00:05:05.334Z,10.5
2019-04-30T00:10:02.991Z,10.3
2019-04-30T00:15:02.429Z,10.3
2019-04-30T00:20:02.857Z,10.5
2019-04-30T00:25:05.259Z,10.3
2019-04-30T00:30:07.239Z,10.3
2019-04-30T00:35:03.271Z,10.3
2019-04-30T00:40:02.776Z,10.3
2019-04-30T00:45:06.712Z,10.3
2019-04-30T00:50:04.689Z,10.1
2019-04-30T00:55:05.550Z,10.1
2019-04-30T01:00:05.027Z,10.3
2019-04-30T01:05:05.325Z,10.3
2019-04-30T01:10:05.098Z,10.1
2019-04-30T01:15:06.509Z,10.1
2019-04-30T01:20:02.969Z,10.1
2019-04-30T01:25:11.767Z,10.1
2019-04-30T01:30:02.760Z,10.1
2019-04-30T01:35:03.305Z,10.1
2019-04-30T01:40:03.096Z,10.1
2019-04-30T01:45:02.745Z,10.0
2019-04-30T01:50:04.943Z,10.0
2019-04-30T01:55:02.621Z,9.8
2019-04-30T02:00:03.146Z,9.8
2019-04-30T02:05:02.573Z,10.0
2019-04-30T02:10:03.097Z,9.8
2019-04-30T02:15:02.522Z,9.8
2019-04-30T02:20:02.952Z,10.0
2019-04-30T02:25:03.399Z,9.8
2019-04-30T02:30:02.933Z,9.8
2019-04-30T02:35:02.462Z,9.8
2019-04-30T02:40:02.936Z,9.8
2019-04-30T02:45:04.137Z,9.8
2019-04-30T02:50:14.373Z,9.6
2019-04-30T02:55:02.142Z,9.5
2019-04-30T03:00:01.737Z,9.5
2019-04-30T03:05:03.164Z,9.5
2019-04-30T03:10:02.719Z,9.5
2019-04-30T03:15:03.218Z,9.5
2019-04-30T03:20:03.574Z,9.6
2019-04-30T03:25:03.187Z,9.8
2019-04-30T03:30:02.770Z,9.6
2019-04-30T03:35:03.653Z,9.8
2019-04-30T03:40:03.501Z,9.8
2019-04-30T03:45:03.017Z,9.6
2019-04-30T03:50:02.468Z,9.6
2019-04-30T03:55:03.212Z,9.5
2019-04-30T04:00:02.719Z,9.5
2019-04-30T04:05:03.153Z,9.5
2019-04-30T04:10:02.705Z,9.6
2019-04-30T04:15:04.068Z,9.6
2019-04-30T04:20:02.770Z,9.8
2019-04-30T04:25:03.300Z,9.8
2019-04-30T04:30:02.951Z,9.8
2019-04-30T04:35:03.458Z,9.8
2019-04-30T04:45:03.329Z,10.0
2019-04-30T04:50:02.841Z,9.8
2019-04-30T04:55:03.332Z,10.0
2019-04-30T05:00:07.453Z,10.1
2019-04-30T05:05:03.375Z,10.1
2019-04-30T05:10:02.875Z,10.1
2019-04-30T05:15:03.409Z,10.3
2019-04-30T05:20:02.828Z,10.5
2019-04-30T05:25:03.271Z,10.3
2019-04-30T05:30:02.690Z,10.3
2019-04-30T05:35:03.145Z,10.1
2019-04-30T05:40:02.553Z,10.3
2019-04-30T05:45:02.991Z,10.5
2019-04-30T05:50:02.420Z,10.6
2019-04-30T05:55:02.940Z,10.6
2019-04-30T06:00:03.553Z,10.5
2019-04-30T06:05:02.319Z,10.5
2019-04-30T06:10:02.028Z,10.8
2019-04-30T06:15:02.511Z,10.6
2019-04-30T06:20:02.968Z,10.8
2019-04-30T06:25:02.499Z,10.6
2019-04-30T06:30:02.145Z,10.8
2019-04-30T06:35:02.533Z,11.1
2019-04-30T06:40:03.008Z,11.0
2019-04-30T06:45:02.438Z,11.1
2019-04-30T06:50:02.962Z,11.0
2019-04-30T06:55:02.497Z,11.0
2019-04-30T07:00:02.937Z,11.0
2019-04-30T07:05:03.371Z,11.0
2019-04-30T07:10:02.792Z,11.1
2019-04-30T07:15:03.247Z,11.1
2019-04-30T07:20:02.652Z,11.3
2019-04-30T07:25:03.103Z,11.3
2019-04-30T07:30:02.541Z,11.1
2019-04-30T07:35:03.182Z,11.1
2019-04-30T07:40:02.633Z,11.3
2019-04-30T07:45:03.136Z,11.1
2019-04-30T07:50:02.573Z,11.1
2019-04-30T07:55:03.012Z,11.6
2019-04-30T08:00:02.454Z,11.6
2019-04-30T08:05:02.958Z,12.1
2019-04-30T08:10:02.371Z,12.1
2019-04-30T08:15:02.833Z,12.1
2019-04-30T08:20:03.273Z,12.1
2019-04-30T08:25:02.739Z,12.5
2019-04-30T08:30:03.232Z,13.5
2019-04-30T08:35:02.635Z,13.1
2019-04-30T08:40:03.566Z,13.5
2019-04-30T08:45:03.131Z,13.5
2019-04-30T08:50:03.082Z,14.3
2019-04-30T08:55:13.254Z,15.5
2019-04-30T09:00:02.702Z,15.1
2019-04-30T09:05:03.477Z,16.2
2019-04-30T09:10:04.806Z,16.7
2019-04-30T09:15:03.469Z,17.0
2019-04-30T09:20:03.000Z,15.3
2019-04-30T09:25:02.468Z,16.2
2019-04-30T09:30:02.915Z,17.0
2019-04-30T09:35:03.362Z,17.7
2019-04-30T09:40:15.013Z,18.1
2019-04-30T09:45:03.220Z,18.2
2019-04-30T09:50:02.731Z,18.1
2019-04-30T09:55:03.389Z,18.1
2019-04-30T10:00:03.009Z,17.3
2019-04-30T10:05:02.874Z,17.5
2019-04-30T10:10:02.679Z,15.0
2019-04-30T10:15:03.201Z,17.0
2019-04-30T10:20:02.648Z,19.1
2019-04-30T10:25:03.085Z,18.2
2019-04-30T10:30:02.629Z,17.7
2019-04-30T10:35:03.146Z,17.8
2019-04-30T10:40:02.593Z,19.1
2019-04-30T10:45:03.012Z,18.7
2019-04-30T10:50:02.419Z,18.2
2019-04-30T10:55:04.520Z,19.3
2019-04-30T11:00:03.202Z,17.5
2019-04-30T11:05:02.640Z,18.8
2019-04-30T11:10:03.085Z,16.7
2019-04-30T11:15:02.477Z,17.0
2019-04-30T11:20:03.159Z,18.2
2019-04-30T11:25:03.161Z,19.2
2019-04-30T11:30:04.069Z,19.2
2019-04-30T11:35:02.826Z,18.5
2019-04-30T11:40:03.271Z,18.2
2019-04-30T11:45:02.699Z,18.2
2019-04-30T11:50:03.148Z,16.7
2019-04-30T11:55:02.541Z,17.1
2019-04-30T12:00:02.948Z,18.8
2019-04-30T12:05:05.250Z,19.1
2019-04-30T12:10:02.755Z,17.8
2019-04-30T12:15:03.231Z,17.7
2019-04-30T12:20:02.710Z,17.8
2019-04-30T12:25:05.409Z,18.8
2019-04-30T12:30:03.013Z,16.3
2019-04-30T12:35:02.505Z,17.7
2019-04-30T12:40:03.060Z,18.2
2019-04-30T12:45:01.908Z,18.2
2019-04-30T12:50:03.428Z,19.3
2019-04-30T12:55:14.453Z,18.6
2019-04-30T13:00:02.786Z,19.0
2019-04-30T13:05:03.229Z,19.0
2019-04-30T13:10:02.832Z,18.2
2019-04-30T13:15:02.797Z,18.2
2019-04-30T13:20:03.221Z,18.6
2019-04-30T13:25:02.816Z,19.2
2019-04-30T13:30:03.449Z,20.0
2019-04-30T13:35:02.936Z,19.5
2019-04-30T13:40:02.663Z,19.2
2019-04-30T13:45:02.430Z,17.1
2019-04-30T13:50:02.870Z,15.8
2019-04-30T13:55:03.350Z,19.5
2019-04-30T14:00:02.858Z,20.3
2019-04-30T14:05:03.364Z,19.2
2019-04-30T14:10:01.987Z,20.1
2019-04-30T14:15:01.842Z,17.0
2019-04-30T14:20:03.259Z,19.1
2019-04-30T14:25:02.754Z,20.0
2019-04-30T14:30:03.170Z,19.1
2019-04-30T14:35:02.734Z,17.8
2019-04-30T14:40:03.746Z,19.2
2019-04-30T14:45:03.101Z,20.8
2019-04-30T14:50:05.057Z,19.7
2019-04-30T14:55:02.935Z,19.3
2019-04-30T15:00:03.517Z,20.8
2019-04-30T15:05:02.998Z,19.7
2019-04-30T15:10:02.409Z,18.6
2019-04-30T15:15:02.862Z,19.2
2019-04-30T15:20:03.296Z,20.6
2019-04-30T15:25:02.787Z,20.2
2019-04-30T15:30:03.337Z,18.7
2019-04-30T15:35:02.776Z,19.0
2019-04-30T15:40:03.285Z,19.2
2019-04-30T15:45:02.697Z,19.5
2019-04-30T15:50:03.150Z,19.2
2019-04-30T15:55:02.704Z,19.1
2019-04-30T16:00:03.151Z,18.2
2019-04-30T16:05:02.574Z,18.7
2019-04-30T16:10:02.990Z,18.2
2019-04-30T16:15:02.569Z,18.2
2019-04-30T16:20:03.135Z,18.5
2019-04-30T16:25:02.606Z,17.8
2019-04-30T16:30:03.099Z,18.7
2019-04-30T16:35:02.563Z,17.8
2019-04-30T16:40:03.011Z,17.8
2019-04-30T16:45:02.442Z,17.3
2019-04-30T16:50:02.913Z,16.7
2019-04-30T16:55:03.419Z,17.0
2019-04-30T17:00:02.865Z,17.5
2019-04-30T17:05:03.356Z,17.2
2019-04-30T17:10:02.796Z,16.2
2019-04-30T17:15:03.205Z,16.2
2019-04-30T17:20:02.612Z,16.0
2019-04-30T17:25:03.107Z,16.2
2019-04-30T17:30:02.527Z,16.0
2019-04-30T17:35:02.983Z,15.8
2019-04-30T17:40:02.393Z,15.3
2019-04-30T17:45:02.842Z,15.6
2019-04-30T17:50:03.283Z,15.6
2019-04-30T17:55:02.706Z,15.3
2019-04-30T18:00:15.876Z,15.1
2019-04-30T18:05:03.086Z,14.8
2019-04-30T18:10:02.558Z,14.8
2019-04-30T18:15:03.039Z,14.3
2019-04-30T18:20:02.461Z,13.6
2019-04-30T18:25:02.877Z,12.8
2019-04-30T18:30:03.346Z,12.6
2019-04-30T18:35:02.867Z,12.3
2019-04-30T18:40:03.298Z,12.1
2019-04-30T18:45:02.815Z,12.1
2019-04-30T18:50:03.360Z,12.0
2019-04-30T18:55:02.786Z,11.8
2019-04-30T19:00:03.246Z,11.6
2019-04-30T19:05:02.649Z,11.6
2019-04-30T19:10:03.101Z,11.3
2019-04-30T19:15:02.531Z,11.3
2019-04-30T19:20:02.975Z,11.1
2019-04-30T19:25:04.491Z,11.1
2019-04-30T19:30:03.029Z,11.0
2019-04-30T19:37:11.455Z,10.8
2019-04-30T19:40:02.892Z,10.8
2019-04-30T19:45:09.346Z,10.8
2019-04-30T19:50:03.055Z,10.6
2019-04-30T19:55:02.467Z,10.5
2019-04-30T20:00:03.238Z,10.3
2019-04-30T20:05:02.620Z,10.3
2019-04-30T20:10:03.915Z,10.1
2019-04-30T20:15:02.856Z,10.1
2019-04-30T20:20:03.454Z,10.1
2019-04-30T20:25:02.884Z,10.0
2019-04-30T20:30:03.350Z,9.8
2019-04-30T20:35:02.871Z,9.6
2019-04-30T20:40:03.337Z,9.6
2019-04-30T20:45:03.859Z,9.6
2019-04-30T20:50:02.452Z,9.5
2019-04-30T20:55:02.882Z,9.5
2019-04-30T21:00:03.433Z,9.3
2019-04-30T21:05:02.950Z,9.1
2019-04-30T21:10:02.471Z,9.0
2019-04-30T21:15:02.919Z,8.8
2019-04-30T21:20:03.472Z,8.6
2019-04-30T21:25:02.977Z,8.6
2019-04-30T21:30:02.503Z,8.6
2019-04-30T21:35:03.050Z,8.5
2019-04-30T21:40:02.536Z,8.5
2019-04-30T21:45:03.031Z,8.3
2019-04-30T21:50:02.531Z,8.1
2019-04-30T21:55:02.947Z,8.1
2019-04-30T22:00:03.432Z,8.1
2019-04-30T22:05:02.938Z,8.0
2019-04-30T22:10:02.510Z,7.9
2019-04-30T22:15:02.197Z,7.9
2019-04-30T22:20:01.975Z,7.9
2019-04-30T22:25:02.495Z,7.9
2019-04-30T22:30:02.910Z,7.9
2019-04-30T22:35:03.354Z,7.6
2019-04-30T22:40:02.875Z,7.6
2019-04-30T22:45:03.318Z,7.6
2019-04-30T22:50:02.757Z,7.5
2019-04-30T22:55:03.269Z,7.5
2019-04-30T23:00:09.682Z,7.5
2019-04-30T23:05:03.023Z,7.5
2019-04-30T23:10:02.456Z,7.4
2019-04-30T23:15:02.908Z,7.4
2019-04-30T23:20:03.349Z,7.4
2019-04-30T23:25:02.769Z,7.4
2019-04-30T23:30:03.844Z,7.1
2019-04-30T23:35:03.540Z,7.1
2019-04-30T23:40:02.961Z,7.1
2019-04-30T23:45:02.450Z,7.4
2019-04-30T23:50:02.851Z,7.1
2019-04-30T23:55:03.272Z,7.0
